• Join FlightAware (Why Join?)
  • Login
  • US Flag 
09:38PM EDT


 

Airport Tracker/Info


-or-


 

Live Flight TrackerFlight Track Log ✈ EJA361 ✈ 24-Jun-2013 ✈ KSDF - KBED

Flight Track Log - Related Links

Times and Time Zones

All times are in EDT time to prevent confusion due to time zone crossing. See the EJA361 flight status page for this flight to view local times or setup timezone preferences in your user account.

Time Position Orientation Groundspeed Altitude Reporting Facility
EDT Latitude Longitude Course Direction KTS MPH feet Rate Location/Type
07:16PM 38.0986 -85.7094 356° North 238 274 5,200  Level Indianapolis Center
07:17PM 38.0781 -85.7925 253° West 286 329 8,800 2,640 Climbing Indianapolis Center
07:18PM 38.1514 -85.8242 341° North 285 328 10,700 2,340 Climbing Indianapolis Center
07:19PM 38.2336 -85.8461 348° North 295 339 13,700 2,820 Climbing Indianapolis Center
07:20PM 38.3225 -85.8661 350° North 316 364 16,500 2,640 Climbing Indianapolis Center
07:21PM 38.3422 -85.9833 North  Level FlightAware Approximate
07:21PM 38.4233 -85.8783 355° North 347 399 19,200  Level Indianapolis Center
07:22PM 38.4526 -85.9851 356° North  Level FlightAware Approximate
07:22PM 38.5239 -85.8908 354° North 360 414 21,100  Level Indianapolis Center
07:23PM 38.6308 -85.9033 355° North 374 430 23,000 1,920 Climbing Indianapolis Center
07:24PM 38.7664 -85.9178 355° North 395 455 25,100 1,860 Climbing Indianapolis Center
07:25PM 38.8753 -85.8658 20° North 429 494 26,900 1,800 Climbing Indianapolis Center
07:26PM 38.9492 -85.7408 53° Northeast 440 506 28,800 1,800 Climbing Indianapolis Center
07:27PM 39.0200 -85.6111 55° Northeast 445 512 30,600 1,740 Climbing Indianapolis Center
07:28PM 39.0897 -85.4808 55° Northeast 445 512 32,400 1,680 Climbing Indianapolis Center
07:30PM 39.1600 -85.3494 55° Northeast 448 516 34,100 1,680 Climbing Indianapolis Center
07:31PM 39.2294 -85.2208 55° Northeast 442 509 35,900 1,380 Climbing Indianapolis Center
07:32PM 39.3136 -85.0636 55° Northeast 445 512 37,000 960 Climbing Indianapolis Center
07:33PM 39.3844 -84.9281 56° Northeast 455 524 37,900 840 Climbing Indianapolis Center
07:34PM 39.4569 -84.7908 56° Northeast 457 526 38,800 840 Climbing Indianapolis Center
07:35PM 39.5294 -84.6547 55° Northeast 454 522 39,700 540 Climbing Indianapolis Center
07:36PM 39.6025 -84.5189 55° Northeast 455 524 40,000 120 Climbing Indianapolis Center
07:37PM 39.6722 -84.3786 57° Northeast 458 527 40,000  Level Indianapolis Center
07:38PM 39.7450 -84.2406 56° Northeast 459 528 40,000  Level Indianapolis Center
07:39PM 39.8175 -84.1014 56° Northeast 460 529 40,000  Level Indianapolis Center
07:40PM 39.8897 -83.9603 56° Northeast 462 532 40,000  Level Indianapolis Center
07:41PM 39.9617 -83.8200 56° Northeast 460 529 40,000 60 Level Indianapolis Center
07:42PM 40.0358 -83.6789 56° Northeast 462 532 40,200 480 Climbing Indianapolis Center
07:43PM 40.1056 -83.5397 57° Northeast 450 518 41,000 360 Climbing Indianapolis Center
07:44PM 40.1753 -83.3989 57° Northeast 452 520 41,000  Level Indianapolis Center
07:45PM 40.2464 -83.2575 57° Northeast 458 527 41,000  Level Indianapolis Center
07:46PM 40.3289 -83.0919 57° Northeast 461 531 41,000  Level Indianapolis Center
07:47PM 40.3992 -82.9511 57° Northeast 459 528 41,000  Level Indianapolis Center
07:48PM 40.4722 -82.8047 57° Northeast 463 533 41,000  Level Indianapolis Center
07:49PM 40.5422 -82.6619 57° Northeast 461 531 41,000  Level Indianapolis Center
07:50PM 40.6131 -82.5178 57° Northeast 465 535 41,000  Level Indianapolis Center
07:51PM 40.6728 -82.3681 62° Northeast 460 529 41,000  Level Indianapolis Center
07:52PM 40.7278 -82.2131 65° Northeast 462 532 41,000  Level Indianapolis Center
07:53PM 40.7831 -82.0600 64° Northeast 461 531 41,000  Level Indianapolis Center
07:54PM 40.8375 -81.9064 65° Northeast 461 531 41,000  Level Indianapolis Center
07:55PM 40.8922 -81.7522 65° Northeast 462 532 41,000  Level Indianapolis Center
07:56PM 40.9531 -81.5728 66° East 460 529 41,000  Level Cleveland Center
07:57PM 41.0083 -81.4194 64° Northeast 460 529 41,000  Level Cleveland Center
07:58PM 41.0636 -81.2633 65° Northeast 460 529 41,000  Level Cleveland Center
07:59PM 41.1186 -81.1067 65° Northeast 460 529 41,000  Level Cleveland Center
08:00PM 41.1714 -80.9556 65° Northeast 460 529 41,000  Level Cleveland Center
08:01PM 41.2281 -80.7983 64° Northeast 460 529 41,000  Level Cleveland Center
08:02PM 41.2867 -80.6247 66° East 465 535 41,000  Level Cleveland Center
08:03PM 41.3386 -80.4669 66° East 460 529 41,000  Level Cleveland Center
08:04PM 41.3969 -80.3119 63° Northeast 460 529 41,000  Level Cleveland Center
08:05PM 41.4483 -80.1536 67° East 460 529 41,000  Level Cleveland Center
08:06PM 41.5000 -79.9953 66° East 460 529 41,000  Level Cleveland Center
08:07PM 41.5533 -79.8422 65° Northeast 460 529 41,000  Level Cleveland Center
08:08PM 41.6042 -79.6833 67° East 460 529 41,000  Level Cleveland Center
08:09PM 41.6569 -79.5269 66° East 460 529 41,000  Level Cleveland Center
08:10PM 41.7075 -79.3678 67° East 460 529 41,000  Level Cleveland Center
08:11PM 41.7581 -79.2136 66° East 460 529 41,000  Level Cleveland Center
08:12PM 41.8061 -79.0678 66° East 460 529 41,000  Level Cleveland Center
08:13PM 41.8600 -78.8992 67° East 460 529 41,000  Level Cleveland Center
08:14PM 41.9097 -78.7444 67° East 460 529 41,000  Level Cleveland Center
08:15PM 41.9614 -78.5839 67° East 455 524 41,000  Level Cleveland Center
08:16PM 42.0086 -78.4286 68° East 455 524 41,000  Level Cleveland Center
08:17PM 42.0578 -78.2731 67° East 455 524 41,000  Level Cleveland Center
08:18PM 42.1028 -78.1344 66° East 450 518 41,000  Level Cleveland Center
08:19PM 42.1514 -77.9756 68° East 450 518 41,000  Level Cleveland Center
08:20PM 42.1997 -77.8167 68° East 450 518 41,000  Level Cleveland Center
08:21PM 42.2481 -77.6575 68° East 450 518 41,000  Level Cleveland Center
08:22PM 42.2961 -77.5008 67° East 450 518 41,000  Level Cleveland Center
08:23PM 42.3439 -77.3439 68° East 450 518 41,000  Level Cleveland Center
08:25PM 42.4294 -77.0569 68° East 459 528 41,000  Level Boston Center
08:26PM 42.4522 -76.9036 79° East 464 534 41,000  Level Boston Center
08:27PM 42.4714 -76.7333 81° East 458 527 41,000  Level Boston Center
08:28PM 42.4900 -76.5656 81° East 458 527 41,000  Level Boston Center
08:29PM 42.5067 -76.3947 82° East 458 527 41,000 -600 Level Boston Center
08:30PM 42.5269 -76.2297 80° East 458 527 39,800 -1,260 Descending Boston Center
08:31PM 42.5425 -76.0728 82° East 437 503 38,500 -1,320 Descending Boston Center
08:32PM 42.5578 -75.9131 83° East 427 491 37,200 -1,320 Descending Boston Center
08:33PM 42.5731 -75.7475 83° East 427 491 35,900 -1,140 Descending Boston Center
08:34PM 42.5883 -75.5761 83° East 439 505 35,000 -480 Descending Boston Center
08:35PM 42.6033 -75.4078 83° East 451 519 35,000  Level Boston Center
08:36PM 42.6203 -75.2364 82° East 456 525 35,000 -900 Level Boston Center
08:38PM 42.6531 -74.8961 82° East 456 525 32,300 -1,440 Descending Boston Center
08:39PM 42.6672 -74.7189 84° East 463 533 30,800 -1,500 Descending Boston Center
08:40PM 42.6644 -74.5381 91° East 463 533 29,300 -900 Descending Boston Center
08:41PM 42.6592 -74.3628 92° East 463 533 29,000 -180 Descending Boston Center
08:42PM 42.6517 -74.1847 93° East 463 533 29,000 -300 Level Boston Center
08:43PM 42.6375 -74.0122 96° East 463 533 28,500 -1,020 Descending Boston Center
08:44PM 42.6083 -73.8506 104° East 457 526 27,000 -1,680 Descending Boston Center
08:45PM 42.5792 -73.6722 102° East 443 510 25,200 -1,680 Descending Boston Center
08:46PM 42.5536 -73.5139 102° East 432 497 23,700 -1,500 Descending Boston Center
08:47PM 42.5281 -73.3586 103° East 432 497 22,200 -1,500 Descending Boston Center
08:48PM 42.5064 -73.1978 100° East 428 493 20,700 -1,500 Descending Boston Center
08:49PM 42.4842 -73.0511 102° East 412 474 19,200 -1,380 Descending Boston Center
08:50PM 42.4911 -72.8992 86° East 399 459 18,000 -600 Descending Boston Center
08:51PM 42.5019 -72.7528 84° East 399 459 18,000  Level Boston Center
08:52PM 42.5108 -72.6175 85° East 399 459 18,000 -60 Level Boston Center
08:53PM 42.5192 -72.4711 86° East 399 459 17,900 -1,080 Descending Boston Center
08:54PM 42.5294 -72.3217 85° East 394 453 15,900 -2,040 Descending Boston Center
08:55PM 42.5378 -72.1781 85° East 384 442 13,900 -2,100 Descending Boston Center
08:56PM 42.5414 -72.0231 88° East 378 435 11,800 -1,860 Descending Boston Center
08:57PM 42.5325 -71.9189 97° East 346 398 10,200 -1,680 Descending Boston Center
08:58PM 42.5217 -71.7978 97° East 303 349 8,500 -1,500 Descending Boston Center
08:59PM 42.5272 -71.7019 85° East 286 329 7,200 -1,620 Descending Boston Center
09:00PM 42.5333 -71.6167 84° East 279 321 5,900 -1,680 Descending KA90
09:01PM 42.5333 -71.5167 90° East 264 304 4,400 -1,260 Descending KA90
09:02PM 42.5333 -71.4333 90° East 225 259 3,300 -1,080 Descending KA90
09:03PM 42.5167 -71.3500 105° East 197 227 2,300 -720 Descending KA90
09:04PM 42.5167 -71.2833 90° East 169 194 1,900 -420 Descending KA90
09:05PM 42.5000 -71.2333 114° Southeast 146 168 1,500 -660 Descending KA90
09:06PM 42.4667 -71.2500 200° South 137 158 600 1,260 Descending KA90
09:08PM 42.4278 -71.2700 201° Southwest 77 89 6,000 1,560 Climbing Boston Center
09:09PM 42.4028 -71.2789 195° South 77 89 6,000  Level Boston Center
09:10PM 42.3819 -71.2878 197° South 77 89 6,000  Level Boston Center
09:11PM 42.3778 -71.2878 180° South 77 89 6,000  Level Boston Center
09:13PM 42.4757 -71.2697 228° Southwest  Level FlightAware Approximate
09:20PM 42.4667 -71.2833 228° Southwest  Level FlightAware Approximate